Time;durP1;ratioP1;P1;durP2;ratioP2;P2;SDS_P1;SDS_P2;PMS_P1;PMS_P2;Temp;Humidity;BMP_temperature;BMP_pressure;BME280_temperature;BME280_humidity;BME280_pressure;Samples;Min_cycle;Max_cycle;Signal;HPM_P1;HPM_P2
2022/08/21 00:00:26;;;;;;;4.90;4.30;;;;;;;21.85;63.13;100153.84;84732;1330;22595;-70
2022/08/21 00:02:51;;;;;;;4.80;3.90;;;;;;;21.82;63.37;100151.15;84716;1330;22628;-70
2022/08/21 00:05:00;;;;;;;4.90;4.40;;;;;;;21.76;63.65;100151.86;84753;1327;22613;-70
2022/08/21 00:07:09;;;;;;;7.60;3.30;;;;;;;21.71;64.09;100151.25;84703;1327;22746;-70
2022/08/21 00:09:18;;;;;;;9.50;4.00;;;;;;;21.66;64.39;100160.21;84752;1327;25485;-72
2022/08/21 00:11:27;;;;;;;5.30;3.60;;;;;;;21.60;64.76;100160.69;84709;1326;26766;-71
2022/08/21 00:13:36;;;;;;;4.80;3.80;;;;;;;21.54;65.17;100164.98;84737;1327;22728;-72
2022/08/21 00:15:45;;;;;;;4.40;3.60;;;;;;;21.45;65.74;100168.27;84730;1327;23905;-70
2022/08/21 00:17:54;;;;;;;8.30;3.80;;;;;;;21.37;65.96;100168.04;84714;1327;22760;-71
2022/08/21 00:20:03;;;;;;;4.20;3.60;;;;;;;21.31;66.20;100169.95;84757;1327;26585;-72
2022/08/21 00:22:12;;;;;;;9.80;3.70;;;;;;;21.25;66.39;100167.64;84736;1327;25412;-72
2022/08/21 00:24:21;;;;;;;9.90;4.00;;;;;;;21.18;66.77;100166.78;84732;1327;22704;-70
2022/08/21 00:26:29;;;;;;;5.00;3.70;;;;;;;21.10;66.99;100162.69;84732;1328;22765;-70
2022/08/21 00:28:39;;;;;;;6.30;4.30;;;;;;;21.04;67.35;100155.21;84732;1326;22588;-71
2022/08/21 00:30:48;;;;;;;6.00;4.10;;;;;;;20.97;67.68;100154.80;84726;1327;24229;-71
2022/08/21 00:32:57;;;;;;;5.50;4.20;;;;;;;20.89;67.79;100158.77;84707;1327;23902;-71
2022/08/21 00:35:11;;;;;;;5.50;4.20;;;;;;;20.82;67.93;100156.17;84740;1328;22830;-71
2022/08/21 00:37:20;;;;;;;6.50;3.70;;;;;;;20.77;68.12;100148.65;84678;1328;22605;-71
2022/08/21 00:39:29;;;;;;;7.50;4.70;;;;;;;20.71;68.37;100145.60;84743;1327;24274;-72
2022/08/21 00:41:38;;;;;;;5.40;4.00;;;;;;;20.63;68.58;100142.71;84704;1327;22581;-73
2022/08/21 00:43:47;;;;;;;5.40;4.50;;;;;;;20.57;69.03;100139.52;84742;1330;22802;-71
2022/08/21 00:45:56;;;;;;;6.10;3.70;;;;;;;20.50;69.07;100135.64;84715;1325;22637;-69
2022/08/21 00:48:05;;;;;;;4.40;3.20;;;;;;;20.47;69.31;100133.77;84704;1327;22893;-70
2022/08/21 00:50:15;;;;;;;6.70;4.00;;;;;;;20.44;69.45;100128.04;84757;1329;26072;-72
2022/08/21 00:52:27;;;;;;;10.10;3.80;;;;;;;20.37;69.62;100132.07;84719;1327;22728;-71
2022/08/21 00:54:36;;;;;;;8.20;4.10;;;;;;;20.33;69.82;100132.10;84737;1330;22580;-72
2022/08/21 00:56:45;;;;;;;4.50;4.10;;;;;;;20.28;70.01;100131.73;84732;1327;22674;-72
2022/08/21 00:58:53;;;;;;;6.80;3.80;;;;;;;20.27;70.10;100131.00;84690;1329;22865;-70
2022/08/21 01:01:02;;;;;;;5.20;4.50;;;;;;;20.27;70.35;100130.13;84713;1325;25441;-70
2022/08/21 01:03:14;;;;;;;4.90;4.40;;;;;;;20.23;70.49;100129.88;84681;1321;22594;-70
2022/08/21 01:05:23;;;;;;;7.00;4.10;;;;;;;20.21;70.46;100134.30;84716;1330;22630;-73
2022/08/21 01:07:32;;;;;;;7.10;4.40;;;;;;;20.20;70.78;100131.92;84681;1328;22569;-71
2022/08/21 01:09:41;;;;;;;5.30;4.00;;;;;;;20.18;70.96;100128.37;84675;1329;23926;-72
2022/08/21 01:11:49;;;;;;;6.50;4.30;;;;;;;20.14;71.00;100126.79;84704;1327;22617;-72
2022/08/21 01:13:59;;;;;;;4.80;4.40;;;;;;;20.07;71.25;100126.36;84694;1330;22830;-71
2022/08/21 01:16:09;;;;;;;;;;;;;;;20.01;71.61;100124.74;84694;1330;25287;-71
2022/08/21 01:18:18;;;;;;;5.50;3.50;;;;;;;19.92;71.83;100127.79;84675;1326;22857;-69
2022/08/21 01:20:28;;;;;;;7.50;5.00;;;;;;;19.86;72.00;100123.91;84705;1326;22581;-71
2022/08/21 01:22:37;;;;;;;6.60;4.20;;;;;;;19.80;72.16;100124.36;84705;1330;23311;-71
2022/08/21 01:24:46;;;;;;;5.70;4.90;;;;;;;19.76;72.27;100127.52;84694;1324;22574;-71
2022/08/21 01:26:54;;;;;;;7.20;4.60;;;;;;;19.71;72.37;100125.60;84712;1324;22809;-72
2022/08/21 01:29:06;;;;;;;4.90;4.40;;;;;;;19.68;72.52;100122.65;84715;1331;24154;-71
2022/08/21 01:31:15;;;;;;;5.40;4.50;;;;;;;19.65;72.57;100127.67;84691;1329;22644;-71
2022/08/21 01:33:25;;;;;;;8.00;4.70;;;;;;;19.62;72.94;100129.70;84690;1325;25686;-71
2022/08/21 01:35:34;;;;;;;7.50;4.30;;;;;;;19.56;73.01;100128.88;84687;1330;22589;-72
2022/08/21 01:37:43;;;;;;;4.30;3.90;;;;;;;19.53;73.34;100122.77;84690;1328;22645;-71
2022/08/21 01:39:51;;;;;;;7.20;4.70;;;;;;;19.48;73.41;100117.46;84724;1329;22593;-70
2022/08/21 01:42:00;;;;;;;10.00;4.50;;;;;;;19.45;73.66;100115.09;84685;1325;22596;-70
2022/08/21 01:44:09;;;;;;;8.00;4.70;;;;;;;19.41;73.88;100111.69;84705;1325;22714;-73
2022/08/21 01:46:18;;;;;;;6.70;4.50;;;;;;;19.39;74.09;100107.30;84704;1325;22915;-71
2022/08/21 01:48:26;;;;;;;8.40;4.00;;;;;;;19.36;74.12;100102.57;84697;1328;24992;-71
2022/08/21 01:50:35;;;;;;;7.60;4.70;;;;;;;19.33;74.20;100098.34;84684;1330;22764;-73
2022/08/21 01:52:44;;;;;;;4.90;4.30;;;;;;;19.30;74.40;100095.23;84698;1330;22633;-73
2022/08/21 01:54:53;;;;;;;7.60;4.70;;;;;;;19.27;74.39;100092.66;84682;1327;22628;-71
2022/08/21 01:57:02;;;;;;;8.00;3.70;;;;;;;19.23;74.73;100091.39;84699;1327;22831;-70
2022/08/21 01:59:10;;;;;;;4.80;4.40;;;;;;;19.21;74.89;100095.41;84707;1329;22755;-71
2022/08/21 02:01:19;;;;;;;6.30;4.40;;;;;;;19.19;75.22;100099.77;84616;1330;22586;-70
2022/08/21 02:03:28;;;;;;;5.70;4.90;;;;;;;19.19;75.33;100092.73;84705;1326;22646;-71
2022/08/21 02:05:37;;;;;;;9.60;4.00;;;;;;;19.19;75.52;100094.88;84618;1327;22730;-71
2022/08/21 02:07:48;;;;;;;4.70;4.30;;;;;;;19.17;75.53;100087.92;84655;1329;25309;-71
2022/08/21 02:09:56;;;;;;;7.60;4.50;;;;;;;19.17;75.64;100092.88;84723;1330;23978;-70
2022/08/21 02:12:06;;;;;;;6.90;4.50;;;;;;;19.17;75.64;100089.05;84684;1326;22599;-70
2022/08/21 02:14:16;;;;;;;6.10;4.60;;;;;;;19.16;75.82;100090.32;84711;1330;22639;-71
2022/08/21 02:16:24;;;;;;;6.30;4.30;;;;;;;19.15;76.06;100085.48;84686;1330;25296;-71
2022/08/21 02:18:33;;;;;;;9.30;4.90;;;;;;;19.14;76.05;100083.23;84735;1329;23911;-71
2022/08/21 02:20:44;;;;;;;4.60;4.30;;;;;;;19.13;76.08;100079.63;84680;1332;22600;-72
2022/08/21 02:22:53;;;;;;;5.20;4.60;;;;;;;19.11;76.15;100077.48;84686;1332;22605;-72
2022/08/21 02:25:01;;;;;;;4.90;4.50;;;;;;;19.07;76.29;100075.63;84697;1329;23023;-71
2022/08/21 02:27:10;;;;;;;6.20;4.60;;;;;;;19.05;76.49;100073.48;84681;1328;22803;-71
2022/08/21 02:29:19;;;;;;;9.20;4.80;;;;;;;19.02;76.36;100073.36;84717;1330;22916;-69
2022/08/21 02:31:28;;;;;;;8.60;5.00;;;;;;;18.99;76.71;100071.45;84683;1332;22617;-70
2022/08/21 02:33:37;;;;;;;5.40;4.40;;;;;;;18.96;76.81;100070.10;84726;1330;24158;-71
2022/08/21 02:35:46;;;;;;;4.60;4.20;;;;;;;18.93;76.92;100068.40;84701;1330;22591;-71
2022/08/21 02:37:58;;;;;;;5.90;4.30;;;;;;;18.90;76.93;100073.11;84691;1328;22885;-71
2022/08/21 02:40:11;;;;;;;10.10;4.80;;;;;;;18.85;77.08;100070.66;84705;1328;22600;-71
2022/08/21 02:42:20;;;;;;;6.70;4.40;;;;;;;18.80;77.31;100074.52;84689;1330;22598;-71
2022/08/21 02:44:28;;;;;;;7.30;4.60;;;;;;;18.79;77.30;100079.23;84736;1329;22793;-71
2022/08/21 02:46:37;;;;;;;9.20;4.20;;;;;;;18.78;77.60;100079.14;84686;1330;22598;-71
2022/08/21 02:48:46;;;;;;;5.30;4.60;;;;;;;18.76;77.68;100072.04;84669;1328;23909;-71
2022/08/21 02:50:56;;;;;;;5.50;4.70;;;;;;;18.74;77.93;100068.45;84699;1332;22633;-71
2022/08/21 02:53:06;;;;;;;5.40;4.40;;;;;;;18.73;78.17;100066.63;84680;1330;22612;-71
2022/08/21 02:55:15;;;;;;;9.70;4.30;;;;;;;18.71;78.22;100065.52;84686;1328;22637;-72
2022/08/21 02:57:23;;;;;;;5.60;4.40;;;;;;;18.69;78.08;100062.52;84675;1330;22591;-73
2022/08/21 02:59:32;;;;;;;5.50;5.00;;;;;;;18.65;78.12;100059.03;84700;1329;25465;-71
2022/08/21 03:01:41;;;;;;;6.80;4.40;;;;;;;18.61;78.17;100054.81;84695;1327;22797;-69
2022/08/21 03:03:50;;;;;;;4.80;4.30;;;;;;;18.55;78.25;100050.23;84731;1330;22596;-71
2022/08/21 03:05:57;;;;;;;;;;;;;;;18.52;78.30;100048.88;84703;1327;23915;-70
2022/08/21 03:08:09;;;;;;;7.80;4.70;;;;;;;18.46;78.67;100049.23;84671;1325;22754;-70
2022/08/21 03:10:19;;;;;;;6.00;3.90;;;;;;;18.44;78.79;100052.34;84700;1330;22617;-73
2022/08/21 03:12:28;;;;;;;6.80;4.40;;;;;;;18.42;79.05;100053.90;84668;1324;22638;-72
2022/08/21 03:14:38;;;;;;;4.70;4.20;;;;;;;18.41;79.07;100053.61;84681;1330;25414;-72
2022/08/21 03:16:45;;;;;;;;;;;;;;;18.41;79.03;100052.05;84669;1327;22932;-72
2022/08/21 03:18:54;;;;;;;4.40;4.00;;;;;;;18.38;79.09;100052.14;84682;1328;24093;-70
2022/08/21 03:21:03;;;;;;;6.50;4.50;;;;;;;18.38;78.99;100049.83;84699;1332;22598;-70
2022/08/21 03:23:13;;;;;;;4.90;4.40;;;;;;;18.37;79.22;100050.58;84699;1331;22596;-70
2022/08/21 03:25:22;;;;;;;7.10;3.80;;;;;;;18.36;79.31;100051.41;84704;1329;22796;-71
2022/08/21 03:27:30;;;;;;;4.70;4.30;;;;;;;18.32;79.27;100052.75;84675;1328;22575;-71
2022/08/21 03:29:39;;;;;;;6.10;4.40;;;;;;;18.32;79.43;100055.58;84664;1332;22844;-71
2022/08/21 03:31:48;;;;;;;8.20;4.60;;;;;;;18.33;79.59;100055.36;84669;1328;22624;-73
2022/08/21 03:33:57;;;;;;;4.90;4.50;;;;;;;18.33;79.77;100056.40;84685;1329;22585;-71
2022/08/21 03:36:09;;;;;;;4.50;4.20;;;;;;;18.32;79.74;100058.17;84680;1330;22763;-71
2022/08/21 03:38:19;;;;;;;7.00;4.70;;;;;;;18.30;79.90;100056.57;84693;1328;24499;-71
2022/08/21 03:40:29;;;;;;;5.70;4.40;;;;;;;18.29;80.14;100056.45;84161;1330;703805;-71
2022/08/21 03:42:37;;;;;;;5.30;4.50;;;;;;;18.29;80.08;100049.37;84686;1329;22782;-71
2022/08/21 03:44:46;;;;;;;6.60;4.40;;;;;;;18.30;80.14;100048.42;84682;1327;22846;-71
2022/08/21 03:46:55;;;;;;;10.90;4.40;;;;;;;18.33;80.27;100047.95;84688;1328;22621;-71
2022/08/21 03:49:03;;;;;;;6.40;5.30;;;;;;;18.34;80.46;100052.08;84729;1330;22675;-71
2022/08/21 03:51:12;;;;;;;6.00;4.90;;;;;;;18.36;80.39;100051.39;84693;1328;22705;-71
2022/08/21 03:53:21;;;;;;;6.30;4.60;;;;;;;18.38;80.41;100057.45;84687;1329;24236;-73
2022/08/21 03:55:30;;;;;;;5.50;4.70;;;;;;;18.39;80.49;100059.25;84681;1330;22645;-70
2022/08/21 03:57:40;;;;;;;9.00;3.70;;;;;;;18.38;80.48;100061.83;84674;1330;25442;-70
2022/08/21 03:59:49;;;;;;;5.60;4.40;;;;;;;18.37;80.66;100062.59;84693;1325;22590;-71
2022/08/21 04:01:59;;;;;;;9.70;4.70;;;;;;;18.39;80.97;100064.39;84659;1332;22727;-70
2022/08/21 04:04:09;;;;;;;6.30;3.90;;;;;;;18.43;81.26;100063.61;84687;1330;22664;-69
2022/08/21 04:06:17;;;;;;;5.80;4.10;;;;;;;18.47;81.36;100060.79;84687;1329;22580;-70
2022/08/21 04:08:29;;;;;;;5.90;5.10;;;;;;;18.53;81.45;100064.93;84696;1331;24052;-69
2022/08/21 04:10:40;;;;;;;4.50;4.00;;;;;;;18.60;81.61;100065.45;84682;1330;22616;-73
2022/08/21 04:12:49;;;;;;;4.80;4.30;;;;;;;18.69;81.74;100070.98;84681;1330;22783;-71
2022/08/21 04:14:57;;;;;;;7.70;4.70;;;;;;;18.77;81.76;100068.43;84704;1326;22644;-71
2022/08/21 04:17:06;;;;;;;8.20;4.40;;;;;;;18.84;81.75;100068.23;84696;1329;22630;-71
2022/08/21 04:19:15;;;;;;;6.20;4.30;;;;;;;18.94;81.65;100066.02;84657;1331;22965;-73
2022/08/21 04:21:24;;;;;;;5.90;4.80;;;;;;;19.02;81.60;100063.98;84671;1330;24269;-72
2022/08/21 04:23:33;;;;;;;4.90;4.10;;;;;;;19.12;81.62;100063.41;84713;1332;25435;-71
2022/08/21 04:25:43;;;;;;;6.40;4.20;;;;;;;19.23;81.59;100061.50;84673;1332;23988;-71
2022/08/21 04:27:52;;;;;;;10.70;4.40;;;;;;;19.32;81.42;100061.48;84676;1325;22586;-71
2022/08/21 04:30:00;;;;;;;6.10;4.10;;;;;;;19.42;81.58;100055.50;84721;1330;22591;-71
2022/08/21 04:32:10;;;;;;;6.30;4.50;;;;;;;19.57;81.55;100055.23;84705;1328;22622;-71
2022/08/21 04:34:19;;;;;;;4.30;4.00;;;;;;;19.69;81.18;100048.95;84643;1330;22608;-71
2022/08/21 04:36:28;;;;;;;4.40;4.00;;;;;;;19.84;80.97;100046.13;84660;1332;22624;-71
2022/08/21 04:38:36;;;;;;;5.90;4.20;;;;;;;20.01;80.74;100049.90;84714;1330;25452;-69
2022/08/21 04:40:45;;;;;;;4.70;4.30;;;;;;;20.24;80.60;100045.11;84697;1330;22584;-70
2022/08/21 04:42:55;;;;;;;4.30;4.00;;;;;;;20.66;80.56;100043.98;84669;1332;22607;-69
2022/08/21 04:45:05;;;;;;;4.20;3.80;;;;;;;21.19;79.90;100040.95;84716;1332;22907;-71
2022/08/21 04:47:13;;;;;;;5.20;4.20;;;;;;;21.72;78.51;100034.86;84677;1330;22606;-71
2022/08/21 04:49:22;;;;;;;3.60;3.30;;;;;;;22.22;76.77;100035.94;84686;1329;22650;-71
2022/08/21 04:51:33;;;;;;;6.80;3.90;;;;;;;22.72;75.22;100037.40;84693;1330;22605;-70
2022/08/21 04:53:44;;;;;;;4.90;4.00;;;;;;;23.18;73.34;100032.89;84678;1328;22584;-71
2022/08/21 04:55:52;;;;;;;4.20;3.80;;;;;;;23.65;71.78;100038.98;84679;1326;25608;-70
2022/08/21 04:58:01;;;;;;;7.10;5.00;;;;;;;24.09;70.24;100038.73;84681;1332;24169;-70
2022/08/21 05:00:13;;;;;;;4.30;3.90;;;;;;;24.50;68.59;100038.65;84693;1330;22615;-70
2022/08/21 05:02:22;;;;;;;3.50;3.10;;;;;;;24.83;66.70;100044.45;84699;1328;22661;-70
2022/08/21 05:04:33;;;;;;;4.40;3.80;;;;;;;25.03;65.43;100046.84;84719;1330;22594;-72
2022/08/21 05:06:42;;;;;;;5.80;3.90;;;;;;;25.08;64.48;100047.27;84681;1329;26582;-70
2022/08/21 05:08:52;;;;;;;4.40;3.70;;;;;;;25.06;63.72;100049.71;84736;1331;24345;-71
2022/08/21 05:11:01;;;;;;;5.10;3.80;;;;;;;25.04;63.20;100050.96;84705;1328;22614;-71
2022/08/21 05:13:10;;;;;;;8.00;5.60;;;;;;;24.98;62.60;100051.64;84683;1326;23859;-71
2022/08/21 05:15:19;;;;;;;4.50;3.70;;;;;;;24.89;62.04;100055.04;84732;1332;22745;-73
2022/08/21 05:17:29;;;;;;;5.50;4.00;;;;;;;24.76;61.74;100051.73;84701;1327;22762;-71
2022/08/21 05:19:38;;;;;;;6.30;3.30;;;;;;;24.73;61.84;100049.05;84730;1325;22604;-73
2022/08/21 05:21:48;;;;;;;5.50;4.20;;;;;;;24.70;61.71;100047.18;84666;1330;22735;-71
2022/08/21 05:23:57;;;;;;;4.20;3.80;;;;;;;24.68;61.73;100044.53;84686;1332;25302;-71
2022/08/21 05:26:05;;;;;;;6.60;3.50;;;;;;;24.63;61.56;100046.94;84686;1329;22621;-71
2022/08/21 05:28:14;;;;;;;4.50;3.60;;;;;;;24.59;61.72;100043.27;84687;1328;23002;-71
2022/08/21 05:30:23;;;;;;;6.20;3.70;;;;;;;24.58;61.72;100043.29;84712;1331;22599;-69
2022/08/21 05:32:32;;;;;;;7.90;3.70;;;;;;;24.63;61.52;100041.69;84714;1330;22847;-71
2022/08/21 05:34:41;;;;;;;6.30;3.60;;;;;;;24.68;61.48;100042.34;84715;1332;23914;-71
2022/08/21 05:36:50;;;;;;;3.70;3.40;;;;;;;24.64;61.24;100038.83;84691;1331;22581;-71
2022/08/21 05:38:58;;;;;;;4.10;3.70;;;;;;;24.62;61.41;100037.08;84688;1329;22607;-70
2022/08/21 05:41:08;;;;;;;4.50;3.80;;;;;;;24.58;61.00;100040.05;84682;1329;23886;-70
2022/08/21 05:43:17;;;;;;;4.20;3.70;;;;;;;24.55;60.99;100038.16;84695;1332;24296;-70
2022/08/21 05:45:27;;;;;;;4.30;3.90;;;;;;;24.58;61.26;100040.56;84707;1329;22603;-71
2022/08/21 05:47:36;;;;;;;6.20;3.60;;;;;;;24.62;61.21;100042.61;84700;1328;25393;-71
2022/08/21 05:49:45;;;;;;;4.30;3.90;;;;;;;24.68;61.19;100044.01;84703;1329;22608;-72
2022/08/21 05:51:54;;;;;;;4.60;3.50;;;;;;;24.79;61.88;100045.36;84694;1328;22589;-72
2022/08/21 05:54:03;;;;;;;3.90;3.60;;;;;;;25.06;61.60;100050.30;84681;1331;22572;-72
2022/08/21 05:56:12;;;;;;;5.50;3.60;;;;;;;25.26;60.81;100049.23;84705;1330;22603;-72
2022/08/21 05:58:23;;;;;;;3.90;3.50;;;;;;;25.46;60.42;100051.09;84672;1332;22841;-72
2022/08/21 06:00:33;;;;;;;3.80;3.50;;;;;;;25.88;60.76;100055.38;84690;1331;24097;-72
2022/08/21 06:02:42;;;;;;;4.00;3.60;;;;;;;26.38;59.64;100053.56;84703;1330;22695;-71
2022/08/21 06:04:51;;;;;;;4.20;3.60;;;;;;;26.79;58.27;100052.04;84712;1323;25500;-70
2022/08/21 06:06:59;;;;;;;6.00;4.20;;;;;;;27.15;57.16;100052.30;84688;1330;22669;-71
2022/08/21 06:09:08;;;;;;;4.70;3.90;;;;;;;27.40;55.40;100046.33;84703;1332;22705;-71
2022/08/21 06:11:17;;;;;;;5.70;3.50;;;;;;;27.53;54.65;100046.42;84687;1331;22752;-71
2022/08/21 06:13:26;;;;;;;7.00;4.10;;;;;;;27.84;54.71;100046.29;84696;1330;22611;-71
2022/08/21 06:15:34;;;;;;;4.00;3.70;;;;;;;28.40;54.15;100047.92;84687;1328;22573;-70
2022/08/21 06:17:43;;;;;;;4.60;3.50;;;;;;;28.92;52.61;100052.16;84611;1330;24038;-71
2022/08/21 06:19:56;;;;;;;4.80;3.90;;;;;;;29.29;51.20;100052.33;84684;1332;23018;-70
2022/08/21 06:22:06;;;;;;;4.40;3.60;;;;;;;29.69;49.86;100059.81;84673;1325;22701;-71
2022/08/21 06:24:14;;;;;;;5.20;3.50;;;;;;;29.70;48.79;100058.38;84704;1331;22612;-71
2022/08/21 06:26:23;;;;;;;5.00;3.60;;;;;;;29.63;48.46;100056.89;84671;1329;24107;-72
2022/08/21 06:28:32;;;;;;;4.00;3.60;;;;;;;29.64;48.74;100061.50;84692;1330;22564;-72
2022/08/21 06:30:41;;;;;;;5.40;3.30;;;;;;;29.81;48.23;100057.80;84592;1333;22790;-71
2022/08/21 06:32:50;;;;;;;9.30;3.60;;;;;;;30.16;47.81;100058.66;84696;1330;22679;-71
2022/08/21 06:34:59;;;;;;;6.50;3.70;;;;;;;30.68;47.46;100059.48;84721;1330;22686;-72
2022/08/21 06:37:07;;;;;;;4.50;3.10;;;;;;;31.04;46.21;100056.95;84692;1328;25953;-72
2022/08/21 06:39:16;;;;;;;7.10;3.50;;;;;;;31.33;44.91;100057.38;84714;1328;23050;-72
2022/08/21 06:41:25;;;;;;;5.30;3.80;;;;;;;31.53;44.12;100058.34;84674;1330;24125;-72
2022/08/21 06:43:34;;;;;;;6.10;3.60;;;;;;;31.69;43.47;100058.39;84720;1329;22635;-71
2022/08/21 06:45:43;;;;;;;5.50;3.50;;;;;;;31.84;43.03;100055.16;84671;1330;22591;-72
2022/08/21 06:47:52;;;;;;;3.90;3.50;;;;;;;31.97;42.38;100056.29;84655;1329;22620;-72
2022/08/21 06:50:01;;;;;;;5.50;3.60;;;;;;;32.04;41.99;100052.92;84736;1331;22670;-72
2022/08/21 06:52:12;;;;;;;4.70;4.10;;;;;;;32.04;41.87;100058.76;84605;1333;22579;-72
2022/08/21 06:54:21;;;;;;;6.10;3.90;;;;;;;32.02;41.69;100061.41;84704;1332;22677;-71
2022/08/21 06:56:31;;;;;;;19.70;16.40;;;;;;;31.99;41.90;100067.23;84682;1329;22744;-71
2022/08/21 06:58:38;;;;;;;;;;;;;;;31.94;41.99;100068.30;84689;1330;25409;-71
2022/08/21 07:00:48;;;;;;;7.30;4.70;;;;;;;31.66;41.81;100067.36;84673;1331;22758;-71
2022/08/21 07:02:57;;;;;;;4.80;3.80;;;;;;;31.48;41.68;100067.05;84703;1331;24212;-72
2022/08/21 07:05:07;;;;;;;4.60;3.60;;;;;;;31.29;42.49;100068.84;84673;1329;22591;-71
2022/08/21 07:07:16;;;;;;;3.80;3.40;;;;;;;31.13;42.54;100065.52;84693;1330;22590;-72
2022/08/21 07:09:25;;;;;;;4.60;3.60;;;;;;;31.05;42.54;100065.06;84692;1329;22586;-71
2022/08/21 07:11:34;;;;;;;4.80;3.80;;;;;;;31.06;42.76;100066.77;84692;1331;22743;-72
2022/08/21 07:13:43;;;;;;;4.30;3.90;;;;;;;31.12;42.32;100067.09;84701;1332;22580;-72
2022/08/21 07:15:52;;;;;;;4.40;4.10;;;;;;;31.22;42.56;100063.66;84659;1332;22633;-72
2022/08/21 07:18:00;;;;;;;6.70;4.00;;;;;;;31.45;41.92;100063.25;84675;1331;24938;-72
2022/08/21 07:20:12;;;;;;;4.20;3.80;;;;;;;31.74;41.72;100059.28;84702;1326;23231;-72
2022/08/21 07:22:20;;;;;;;4.00;3.10;;;;;;;32.00;40.48;100057.13;84707;1330;25659;-72
2022/08/21 07:24:29;;;;;;;6.60;3.70;;;;;;;32.21;40.40;100053.41;84678;1330;22953;-71
2022/08/21 07:26:38;;;;;;;4.90;3.80;;;;;;;32.40;40.54;100056.60;84593;1333;22588;-71
2022/08/21 07:28:47;;;;;;;4.70;3.20;;;;;;;32.56;40.28;100055.03;84687;1328;25460;-72
2022/08/21 07:30:58;;;;;;;4.90;3.40;;;;;;;32.90;40.05;100051.29;84680;1329;22601;-72
2022/08/21 07:33:07;;;;;;;3.80;3.40;;;;;;;33.34;38.83;100053.51;84689;1329;22909;-72
2022/08/21 07:35:15;;;;;;;5.60;4.20;;;;;;;33.49;38.40;100055.52;84701;1328;22587;-71
2022/08/21 07:37:24;;;;;;;3.90;3.50;;;;;;;33.80;38.49;100051.02;84577;1328;22603;-71
2022/08/21 07:39:33;;;;;;;7.90;3.90;;;;;;;34.19;37.92;100051.98;84709;1329;22726;-71
2022/08/21 07:41:42;;;;;;;8.20;3.50;;;;;;;34.51;37.05;100047.01;84674;1331;25060;-72
2022/08/21 07:43:51;;;;;;;8.00;4.90;;;;;;;34.81;36.59;100045.59;84678;1329;22808;-72
2022/08/21 07:45:59;;;;;;;9.80;4.40;;;;;;;35.06;36.22;100046.86;84682;1330;22693;-72
2022/08/21 07:48:09;;;;;;;6.40;3.70;;;;;;;35.16;35.97;100040.02;84695;1328;24348;-72
2022/08/21 07:50:18;;;;;;;3.50;3.20;;;;;;;35.37;35.69;100040.42;84676;1329;22600;-72
2022/08/21 07:52:27;;;;;;;7.30;3.30;;;;;;;35.52;35.78;100036.84;84675;1330;24172;-73
2022/08/21 07:54:35;;;;;;;6.40;3.50;;;;;;;35.81;35.52;100034.80;84603;1330;25451;-72
2022/08/21 07:56:45;;;;;;;3.60;3.30;;;;;;;36.11;34.68;100029.46;84680;1331;23896;-72
2022/08/21 07:58:55;;;;;;;4.20;3.20;;;;;;;36.17;33.61;100032.55;84734;1321;22588;-72
2022/08/21 08:01:04;;;;;;;3.70;3.40;;;;;;;36.21;34.13;100030.15;84652;1328;22726;-71
2022/08/21 08:03:11;;;;;;;;;;;;;;;36.45;34.46;100028.20;84701;1332;22693;-71
2022/08/21 08:05:22;;;;;;;5.60;4.20;;;;;;;36.69;33.90;100029.71;84702;1330;23961;-71
2022/08/21 08:07:30;;;;;;;6.30;3.80;;;;;;;37.08;33.51;100027.77;84696;1328;22590;-71
2022/08/21 08:09:38;;;;;;;;;;;;;;;37.44;32.21;100028.88;84696;1328;24277;-72
2022/08/21 08:11:46;;;;;;;5.00;3.70;;;;;;;37.49;32.25;100024.20;84671;1332;24076;-72
2022/08/21 08:13:54;;;;;;;;;;;;;;;37.77;32.07;100030.30;84735;1330;22566;-72
2022/08/21 08:16:03;;;;;;;4.80;3.50;;;;;;;38.06;31.81;100027.62;84679;1328;22619;-72
2022/08/21 08:18:12;;;;;;;4.70;3.50;;;;;;;38.24;30.24;100027.72;84686;1325;22643;-72
2022/08/21 08:20:22;;;;;;;6.80;3.60;;;;;;;38.33;30.16;100026.52;84688;1331;22574;-72
2022/08/21 08:22:31;;;;;;;4.60;3.40;;;;;;;38.38;30.09;100025.16;84684;1329;22599;-72
2022/08/21 08:24:44;;;;;;;4.50;3.90;;;;;;;38.52;29.70;100020.64;84697;1329;24235;-72
2022/08/21 08:26:53;;;;;;;4.10;3.70;;;;;;;38.65;29.33;100019.88;84658;1332;25329;-72
2022/08/21 08:29:02;;;;;;;6.60;3.20;;;;;;;38.71;29.24;100017.52;84696;1332;22622;-72
2022/08/21 08:31:11;;;;;;;3.90;3.50;;;;;;;38.85;29.38;100019.48;84681;1332;22600;-72
2022/08/21 08:33:22;;;;;;;6.70;3.30;;;;;;;38.99;28.64;100018.85;84695;1327;22668;-72
2022/08/21 08:35:31;;;;;;;5.50;3.20;;;;;;;39.09;28.33;100026.85;84712;1329;22693;-72
2022/08/21 08:37:40;;;;;;;4.70;4.10;;;;;;;39.23;28.55;100020.61;84699;1332;22646;-72
2022/08/21 08:39:50;;;;;;;4.60;3.70;;;;;;;39.46;27.87;100023.12;84702;1326;22760;-72
2022/08/21 08:42:06;;;;;;;4.70;4.20;;;;;;;39.44;28.07;100024.90;84666;1328;24283;-72
2022/08/21 08:44:15;;;;;;;4.70;4.20;;;;;;;39.61;28.14;100023.61;84709;1329;22746;-72
2022/08/21 08:46:30;;;;;;;8.20;5.70;;;;;;;39.82;27.76;100020.19;84635;1329;22618;-72
2022/08/21 08:48:49;;;;;;;10.60;5.00;;;;;;;40.07;27.51;100016.74;84677;1330;22642;-72
2022/08/21 08:50:59;;;;;;;4.80;3.70;;;;;;;40.28;26.92;100017.15;84659;1329;22593;-72
2022/08/21 08:53:13;;;;;;;5.10;3.60;;;;;;;40.36;26.54;100020.66;84648;1329;24229;-72
2022/08/21 08:55:23;;;;;;;6.50;4.10;;;;;;;40.39;26.47;100014.96;84679;1330;22586;-72
2022/08/21 08:57:32;;;;;;;4.30;3.40;;;;;;;40.30;26.46;100016.23;84684;1329;23955;-72
2022/08/21 08:59:44;;;;;;;4.20;3.70;;;;;;;40.21;26.24;100017.85;84686;1330;24182;-71
2022/08/21 09:01:53;;;;;;;7.60;3.80;;;;;;;40.24;26.48;100015.14;84670;1325;22600;-71
2022/08/21 09:04:02;;;;;;;4.90;4.40;;;;;;;40.37;26.32;100019.67;84693;1331;24054;-71
2022/08/21 09:06:14;;;;;;;3.60;3.30;;;;;;;40.36;25.96;100019.83;84647;1330;22615;-71
2022/08/21 09:08:38;;;;;;;5.00;3.90;;;;;;;40.40;26.28;100015.84;84674;1330;22616;-71
2022/08/21 09:10:55;;;;;;;5.10;4.10;;;;;;;40.09;26.43;100015.88;84672;1330;23602;-72
2022/08/21 09:13:19;;;;;;;8.40;5.40;;;;;;;39.87;26.51;100013.81;84675;1330;22584;-72
2022/08/21 09:15:37;;;;;;;8.80;4.50;;;;;;;39.42;26.88;100015.08;84654;1329;25437;-72
2022/08/21 09:18:07;;;;;;;4.30;3.60;;;;;;;39.16;27.04;100014.14;84663;1328;25448;-73
2022/08/21 09:20:24;;;;;;;4.50;3.50;;;;;;;39.30;27.28;100008.96;84685;1330;24006;-72
2022/08/21 09:22:39;;;;;;;3.50;3.30;;;;;;;39.35;26.98;100009.04;84681;1329;22629;-72
2022/08/21 09:24:57;;;;;;;6.20;3.30;;;;;;;39.10;27.47;100013.69;84673;1330;22602;-72
2022/08/21 09:27:10;;;;;;;5.00;3.50;;;;;;;39.08;27.53;100012.40;84676;1330;22620;-72
2022/08/21 09:29:21;;;;;;;4.00;3.60;;;;;;;38.87;27.18;100011.36;84666;1330;22674;-72
2022/08/21 09:31:32;;;;;;;4.70;3.50;;;;;;;38.19;27.73;100012.29;84651;1332;25448;-74
2022/08/21 09:33:41;;;;;;;4.00;3.60;;;;;;;37.44;28.43;100015.48;84670;1330;25396;-72
2022/08/21 09:35:58;;;;;;;4.70;3.80;;;;;;;36.71;29.52;100010.85;84634;1332;22863;-72
2022/08/21 09:38:08;;;;;;;4.60;3.50;;;;;;;36.12;30.37;100009.58;84677;1329;24338;-72
2022/08/21 09:40:34;;;;;;;7.10;3.70;;;;;;;35.50;30.89;100008.58;84663;1330;24220;-72
2022/08/21 09:42:43;;;;;;;11.20;4.70;;;;;;;34.77;31.23;100010.77;84640;1323;22793;-72
2022/08/21 09:45:01;;;;;;;4.00;3.40;;;;;;;34.26;32.35;100010.16;84640;1330;25451;-72
2022/08/21 09:47:12;;;;;;;5.80;3.30;;;;;;;33.92;32.93;100008.20;84640;1330;22590;-72
2022/08/21 09:49:31;;;;;;;3.80;3.10;;;;;;;33.63;34.08;100009.42;84679;1330;23959;-72
2022/08/21 09:51:38;;;;;;;;;;;;;;;33.49;34.56;100008.65;84677;1327;22574;-72
2022/08/21 09:53:52;;;;;;;3.50;3.10;;;;;;;33.43;34.44;100004.50;84694;1329;22592;-72
2022/08/21 09:58:35;;;;;;;5.50;3.50;;;;;;;33.29;34.59;100005.00;84668;1330;22932;-71
2022/08/21 10:00:44;;;;;;;4.90;4.10;;;;;;;33.26;34.18;100002.34;84658;1329;22651;-71
2022/08/21 10:02:53;;;;;;;6.10;3.10;;;;;;;33.29;35.12;100001.04;84666;1330;23075;-71
2022/08/21 10:05:05;;;;;;;3.50;3.20;;;;;;;33.33;35.79;100003.60;84702;1329;24319;-72
2022/08/21 10:07:15;;;;;;;5.60;3.70;;;;;;;33.20;35.15;99996.33;84600;1330;24133;-72